createdAt,value
2023-03-06T00:02:06.907Z,14.95
2023-03-06T00:04:34.153Z,13.43
2023-03-06T00:07:01.108Z,17.23
2023-03-06T00:09:28.415Z,15.75
2023-03-06T00:11:55.375Z,12.90
2023-03-06T00:14:22.727Z,13.13
2023-03-06T00:16:50.002Z,11.68
2023-03-06T00:19:17.199Z,12.05
2023-03-06T00:21:44.216Z,12.88
2023-03-06T00:24:11.924Z,12.35
2023-03-06T00:26:41.236Z,10.90
2023-03-06T00:29:09.072Z,11.70
2023-03-06T00:31:37.106Z,11.52
2023-03-06T00:34:04.664Z,13.10
2023-03-06T00:36:31.639Z,13.40
2023-03-06T00:38:58.852Z,14.38
2023-03-06T00:41:27.142Z,12.93
2023-03-06T00:43:54.451Z,12.18
2023-03-06T00:46:21.362Z,14.40
2023-03-06T00:48:48.711Z,13.80
2023-03-06T00:51:17.242Z,12.50
2023-03-06T00:53:44.467Z,11.68
2023-03-06T00:56:11.465Z,12.07
2023-03-06T00:58:38.809Z,11.55
2023-03-06T01:01:05.911Z,10.88
2023-03-06T01:03:33.256Z,12.48
2023-03-06T01:06:00.274Z,13.15
2023-03-06T01:08:30.284Z,13.05
2023-03-06T01:10:57.298Z,13.60
2023-03-06T01:13:24.559Z,11.77
2023-03-06T01:15:51.540Z,11.57
2023-03-06T01:18:18.880Z,11.60
2023-03-06T01:20:45.949Z,12.63
2023-03-06T01:23:13.657Z,12.93
2023-03-06T01:25:40.680Z,11.15
2023-03-06T01:28:08.826Z,12.48
2023-03-06T01:30:35.800Z,12.63
2023-03-06T01:33:03.330Z,13.23
2023-03-06T01:35:30.521Z,15.20
2023-03-06T01:37:58.140Z,16.42
2023-03-06T01:40:25.171Z,16.05
2023-03-06T01:42:52.447Z,14.63
2023-03-06T01:45:19.359Z,12.48
2023-03-06T01:47:46.818Z,11.75
2023-03-06T01:50:13.943Z,10.77
2023-03-06T01:52:52.974Z,11.30
2023-03-06T01:55:24.827Z,11.27
2023-03-06T01:57:57.713Z,9.32
2023-03-06T02:00:28.080Z,9.98
2023-03-06T02:03:17.470Z,9.15
2023-03-06T02:05:45.574Z,9.80
2023-03-06T02:08:16.242Z,10.68
2023-03-06T02:10:55.764Z,9.82
2023-03-06T02:13:23.172Z,8.27
2023-03-06T02:15:50.267Z,10.23
2023-03-06T02:18:19.989Z,9.07
2023-03-06T02:20:52.726Z,10.32
2023-03-06T02:23:31.747Z,9.68
2023-03-06T02:26:00.938Z,9.80
2023-03-06T02:28:28.224Z,10.27
2023-03-06T02:30:56.235Z,10.68
2023-03-06T02:33:27.025Z,10.10
2023-03-06T02:35:56.526Z,8.75
2023-03-06T02:38:36.893Z,10.07
2023-03-06T02:41:06.880Z,8.95
2023-03-06T02:43:38.599Z,9.55
2023-03-06T02:46:06.706Z,8.65
2023-03-06T02:48:34.078Z,8.18
2023-03-06T02:51:01.130Z,11.15
2023-03-06T02:53:28.592Z,9.85
2023-03-06T02:55:55.564Z,10.63
2023-03-06T02:58:22.878Z,10.20
2023-03-06T03:00:50.140Z,9.23
2023-03-06T03:03:18.084Z,10.38
2023-03-06T03:05:45.120Z,10.85
2023-03-06T03:08:12.510Z,9.15
2023-03-06T03:10:39.552Z,11.35
2023-03-06T03:13:06.832Z,9.70
2023-03-06T03:15:34.060Z,11.07
2023-03-06T03:18:01.396Z,9.70
2023-03-06T03:20:28.397Z,10.52
2023-03-06T03:22:56.089Z,11.35
2023-03-06T03:25:25.686Z,10.80
2023-03-06T03:27:53.036Z,10.50
2023-03-06T03:30:20.224Z,11.30
2023-03-06T03:32:47.441Z,10.93
2023-03-06T03:35:14.537Z,10.68
2023-03-06T03:37:41.893Z,9.57
2023-03-06T03:40:10.308Z,11.07
2023-03-06T03:42:37.733Z,11.07
2023-03-06T03:45:05.224Z,12.95
2023-03-06T03:47:32.678Z,11.30
2023-03-06T03:49:59.653Z,10.43
2023-03-06T03:52:26.920Z,11.48
2023-03-06T03:54:53.937Z,9.68
2023-03-06T03:57:21.177Z,10.13
2023-03-06T03:59:48.165Z,10.63
2023-03-06T04:02:15.569Z,10.38
2023-03-06T04:04:42.924Z,11.68
2023-03-06T04:07:10.135Z,10.63
2023-03-06T04:09:37.097Z,10.50
2023-03-06T04:12:04.491Z,10.18
2023-03-06T04:14:31.770Z,8.50
2023-03-06T04:16:59.205Z,9.70
2023-03-06T04:19:26.357Z,9.98
2023-03-06T04:21:53.618Z,11.15
2023-03-06T04:24:20.551Z,9.10
2023-03-06T04:26:47.877Z,10.77
2023-03-06T04:29:14.819Z,10.65
2023-03-06T04:31:42.119Z,10.82
2023-03-06T04:34:09.181Z,11.07
2023-03-06T04:36:36.893Z,10.02
2023-03-06T04:39:04.403Z,11.98
2023-03-06T04:41:31.876Z,11.95
2023-03-06T04:43:59.060Z,8.68
2023-03-06T04:46:26.491Z,10.65
2023-03-06T04:48:53.454Z,11.05
2023-03-06T04:51:20.726Z,10.85
2023-03-06T04:53:47.659Z,11.35
2023-03-06T04:56:14.948Z,11.38
2023-03-06T04:58:43.770Z,12.05
2023-03-06T05:01:12.056Z,11.90
2023-03-06T05:03:39.109Z,12.65
2023-03-06T05:06:06.768Z,12.43
2023-03-06T05:08:33.799Z,11.93
2023-03-06T05:11:02.206Z,13.88
2023-03-06T05:13:29.277Z,13.48
2023-03-06T05:16:02.428Z,14.13
2023-03-06T05:18:29.553Z,12.27
2023-03-06T05:20:59.671Z,12.50
2023-03-06T05:23:27.892Z,12.45
2023-03-06T05:25:55.137Z,12.73
2023-03-06T05:28:22.243Z,12.65
2023-03-06T05:30:49.776Z,15.05
2023-03-06T05:33:16.712Z,14.52
2023-03-06T05:35:48.528Z,15.63
2023-03-06T05:38:16.265Z,13.85
2023-03-06T05:40:44.491Z,14.95
2023-03-06T05:43:12.373Z,14.00
2023-03-06T05:45:40.714Z,15.57
2023-03-06T05:48:08.409Z,15.27
2023-03-06T05:50:35.728Z,15.20
2023-03-06T05:53:02.827Z,16.42
2023-03-06T05:55:30.853Z,15.77
2023-03-06T05:57:57.957Z,15.93
2023-03-06T06:00:25.755Z,16.85
2023-03-06T06:02:52.794Z,17.38
2023-03-06T06:05:20.056Z,20.70
2023-03-06T06:07:47.075Z,19.45
2023-03-06T06:10:15.109Z,18.33
2023-03-06T06:12:42.190Z,19.50
2023-03-06T06:15:09.852Z,22.42
2023-03-06T06:17:37.041Z,214.50
2023-03-06T06:20:05.001Z,289.40
2023-03-06T06:22:31.944Z,394.95
2023-03-06T06:24:59.253Z,335.73
2023-03-06T06:27:26.355Z,411.15
2023-03-06T06:29:53.770Z,133.57
2023-03-06T06:32:20.734Z,78.85
2023-03-06T06:34:48.088Z,65.80
2023-03-06T06:37:15.108Z,59.35
2023-03-06T06:39:42.532Z,51.22
2023-03-06T06:42:29.279Z,104.10
2023-03-06T06:44:57.724Z,84.97
2023-03-06T06:47:25.770Z,76.32
2023-03-06T06:49:54.755Z,66.75
2023-03-06T06:52:22.795Z,37.30
2023-03-06T06:54:50.167Z,22.63
2023-03-06T06:57:17.616Z,62.72
2023-03-06T06:59:45.210Z,48.15
2023-03-06T07:02:15.984Z,32.55
2023-03-06T07:04:56.545Z,37.38
2023-03-06T07:07:29.715Z,28.08
2023-03-06T07:09:57.107Z,22.63
2023-03-06T07:12:24.176Z,81.03
2023-03-06T07:14:51.403Z,116.57
2023-03-06T07:17:18.324Z,88.65
2023-03-06T07:19:45.583Z,65.00
2023-03-06T07:22:12.738Z,53.70
2023-03-06T07:24:40.062Z,54.10
2023-03-06T07:27:07.165Z,45.78
2023-03-06T07:29:34.636Z,60.53
2023-03-06T07:32:02.272Z,42.92
2023-03-06T07:34:30.003Z,41.95
2023-03-06T07:36:57.099Z,25.95
2023-03-06T07:39:24.361Z,23.55
2023-03-06T07:41:52.398Z,20.73
2023-03-06T07:44:19.796Z,16.15
2023-03-06T07:46:46.868Z,15.68
2023-03-06T07:49:14.292Z,184.13
2023-03-06T07:51:41.374Z,74.82
2023-03-06T07:54:08.634Z,26.42
2023-03-06T07:56:35.767Z,32.70
2023-03-06T07:59:03.441Z,36.38
2023-03-06T08:01:30.474Z,26.27
2023-03-06T08:03:57.872Z,15.98
2023-03-06T08:06:27.156Z,10.75
2023-03-06T08:08:55.748Z,9.75
2023-03-06T08:11:25.252Z,11.63
2023-03-06T08:13:53.679Z,9.80
2023-03-06T08:16:26.265Z,10.45
2023-03-06T08:18:53.914Z,10.13
2023-03-06T08:21:23.983Z,13.25
2023-03-06T08:23:51.847Z,10.57
2023-03-06T08:26:21.957Z,10.13
2023-03-06T08:28:51.657Z,10.00
2023-03-06T08:31:27.531Z,10.68
2023-03-06T08:33:56.062Z,9.85
2023-03-06T08:36:24.037Z,8.60
2023-03-06T08:38:52.222Z,8.82
2023-03-06T08:41:20.378Z,8.65
2023-03-06T08:43:48.219Z,9.77
2023-03-06T08:46:15.325Z,9.57
2023-03-06T08:48:42.848Z,11.18
2023-03-06T08:51:10.567Z,11.48
2023-03-06T08:53:43.472Z,19.75
2023-03-06T08:58:49.170Z,11.68
2023-03-06T09:01:27.641Z,13.55
2023-03-06T09:03:57.290Z,12.82
2023-03-06T09:06:25.082Z,11.73
2023-03-06T09:08:53.124Z,18.95
2023-03-06T09:11:22.264Z,13.18
2023-03-06T09:13:49.810Z,11.38
2023-03-06T09:16:17.353Z,14.18
2023-03-06T09:18:44.735Z,11.88
2023-03-06T09:21:12.017Z,12.00
2023-03-06T09:23:39.711Z,10.07
2023-03-06T09:26:07.508Z,10.45
2023-03-06T09:28:39.799Z,10.00
2023-03-06T09:31:12.224Z,9.05
2023-03-06T09:33:39.941Z,10.90
2023-03-06T09:36:08.493Z,11.02
2023-03-06T09:38:35.953Z,10.45
2023-03-06T09:41:18.101Z,11.23
2023-03-06T09:43:48.177Z,11.07
2023-03-06T09:46:48.909Z,10.75
2023-03-06T09:49:19.058Z,10.55
2023-03-06T09:52:16.485Z,11.63
2023-03-06T09:54:47.096Z,9.93
2023-03-06T09:57:26.252Z,8.95
2023-03-06T10:00:03.495Z,7.13
2023-03-06T10:02:49.492Z,7.57
2023-03-06T10:05:21.568Z,9.00
2023-03-06T10:08:02.153Z,9.43
2023-03-06T10:10:40.058Z,9.98
2023-03-06T10:13:14.163Z,12.15
2023-03-06T10:15:45.128Z,12.02
2023-03-06T10:18:13.126Z,10.52
2023-03-06T10:21:04.708Z,11.23
2023-03-06T10:24:00.749Z,13.05
2023-03-06T10:26:54.031Z,10.35
2023-03-06T10:30:03.386Z,29.48
2023-03-06T10:32:48.247Z,122.22
2023-03-06T10:35:20.664Z,92.43
2023-03-06T10:37:48.952Z,63.20
2023-03-06T10:40:35.465Z,32.08
2023-03-06T10:43:11.415Z,27.85
2023-03-06T10:45:52.313Z,28.50
2023-03-06T10:48:25.677Z,28.42
2023-03-06T10:53:29.223Z,39.65
2023-03-06T10:56:01.060Z,21.40
2023-03-06T10:58:32.532Z,38.03
2023-03-06T11:01:20.510Z,23.30
2023-03-06T11:03:48.455Z,14.82
2023-03-06T11:06:32.726Z,12.02
2023-03-06T11:09:22.995Z,11.20
2023-03-06T11:12:12.981Z,12.60
2023-03-06T11:14:40.595Z,14.43
2023-03-06T11:17:28.341Z,14.63
2023-03-06T11:20:26.538Z,11.23
2023-03-06T11:23:05.971Z,10.85
2023-03-06T11:25:39.091Z,11.85
2023-03-06T11:28:16.817Z,14.52
2023-03-06T11:30:51.646Z,11.95
2023-03-06T11:33:45.718Z,11.82
2023-03-06T11:36:30.499Z,12.68
2023-03-06T11:38:57.513Z,12.60
2023-03-06T11:41:52.614Z,11.93
2023-03-06T11:44:21.085Z,12.10
2023-03-06T11:46:52.767Z,12.90
2023-03-06T11:49:29.850Z,13.63
2023-03-06T11:52:03.432Z,13.68
2023-03-06T11:54:31.710Z,12.88
2023-03-06T11:57:05.147Z,13.80
2023-03-06T11:59:50.809Z,13.05
2023-03-06T12:02:36.229Z,12.80
2023-03-06T12:05:38.012Z,13.75
2023-03-06T12:08:17.453Z,13.80
2023-03-06T12:11:10.071Z,14.02
2023-03-06T12:14:15.375Z,14.63
2023-03-06T12:16:48.534Z,15.23
2023-03-06T12:19:18.786Z,14.27
2023-03-06T12:21:46.608Z,14.38
2023-03-06T12:24:37.138Z,13.98
2023-03-06T12:27:16.108Z,13.57
2023-03-06T12:30:18.900Z,14.48
2023-03-06T12:33:11.453Z,13.35
2023-03-06T12:35:55.859Z,14.60
2023-03-06T12:38:25.802Z,14.32
2023-03-06T12:41:15.272Z,14.68
2023-03-06T12:43:57.247Z,13.82
2023-03-06T12:46:26.425Z,15.13
2023-03-06T12:49:09.741Z,14.82
2023-03-06T12:51:39.896Z,16.25
2023-03-06T12:54:09.732Z,16.45
2023-03-06T12:56:39.197Z,16.88
2023-03-06T12:59:06.387Z,17.17
2023-03-06T13:01:52.212Z,20.20
2023-03-06T13:04:35.596Z,16.58
2023-03-06T13:07:09.949Z,15.40
2023-03-06T13:09:55.236Z,19.05
2023-03-06T13:12:30.261Z,18.08
2023-03-06T13:15:00.271Z,16.10
2023-03-06T13:17:34.187Z,16.42
2023-03-06T13:20:35.504Z,16.75
2023-03-06T13:23:30.699Z,16.50
2023-03-06T13:26:03.859Z,19.50
2023-03-06T13:28:50.230Z,17.52
2023-03-06T13:31:38.297Z,16.23
2023-03-06T13:34:26.519Z,18.83
2023-03-06T13:36:53.609Z,18.85
2023-03-06T13:39:20.829Z,17.27
2023-03-06T13:41:55.180Z,18.63
2023-03-06T13:44:25.449Z,17.23
2023-03-06T13:47:19.515Z,17.90
2023-03-06T13:49:48.327Z,17.92
2023-03-06T13:52:33.318Z,16.65
2023-03-06T13:55:36.230Z,17.17
2023-03-06T13:58:33.611Z,15.95
2023-03-06T14:01:39.044Z,17.45
2023-03-06T14:04:09.034Z,17.33
2023-03-06T14:06:37.343Z,15.05
2023-03-06T14:09:06.856Z,15.65
2023-03-06T14:11:35.497Z,15.27
2023-03-06T14:14:02.828Z,14.25
2023-03-06T14:16:49.013Z,15.00
2023-03-06T14:19:18.693Z,14.48
2023-03-06T14:21:46.149Z,15.23
2023-03-06T14:24:19.499Z,15.77
2023-03-06T14:26:50.778Z,13.57
2023-03-06T14:29:28.564Z,12.93
2023-03-06T14:31:58.301Z,14.15
2023-03-06T14:34:32.884Z,12.75
2023-03-06T14:37:05.707Z,13.25
2023-03-06T14:39:38.922Z,15.60
2023-03-06T14:42:09.199Z,15.45
2023-03-06T14:44:36.268Z,17.02
2023-03-06T14:47:25.342Z,18.23
2023-03-06T14:50:24.244Z,16.08
2023-03-06T14:52:57.853Z,16.10
2023-03-06T14:55:27.400Z,19.23
2023-03-06T14:58:05.807Z,17.20
2023-03-06T15:00:38.107Z,15.00
2023-03-06T15:03:12.854Z,13.30
2023-03-06T15:05:43.145Z,13.07
2023-03-06T15:08:12.631Z,10.63
2023-03-06T15:10:39.703Z,11.15
2023-03-06T15:13:34.655Z,11.25
2023-03-06T15:16:06.272Z,12.70
2023-03-06T15:18:41.931Z,14.30
2023-03-06T15:21:21.304Z,13.82
2023-03-06T15:23:50.890Z,12.80
2023-03-06T15:26:29.345Z,12.70
2023-03-06T15:29:08.699Z,16.75
2023-03-06T15:31:38.642Z,12.07
2023-03-06T15:34:11.942Z,12.60
2023-03-06T15:36:41.476Z,12.32
2023-03-06T15:39:33.504Z,11.65
2023-03-06T15:42:16.249Z,11.93
2023-03-06T15:47:13.748Z,11.38
2023-03-06T15:49:41.131Z,13.23
2023-03-06T15:52:08.650Z,14.07
2023-03-06T15:54:36.544Z,12.35
2023-03-06T15:57:06.694Z,13.55
2023-03-06T15:59:42.962Z,11.95
2023-03-06T16:02:21.248Z,15.13
2023-03-06T16:04:48.897Z,13.60
2023-03-06T16:07:16.013Z,13.05
2023-03-06T16:09:44.326Z,13.75
2023-03-06T16:12:20.342Z,15.57
2023-03-06T16:14:49.058Z,15.00
2023-03-06T16:17:16.829Z,15.80
2023-03-06T16:19:44.440Z,15.65
2023-03-06T16:22:11.526Z,15.63
2023-03-06T16:24:38.955Z,18.17
2023-03-06T16:27:07.036Z,15.43
2023-03-06T16:29:35.312Z,18.65
2023-03-06T16:32:02.909Z,18.42
2023-03-06T16:34:30.483Z,15.20
2023-03-06T16:36:58.085Z,13.07
2023-03-06T16:39:25.540Z,13.60
2023-03-06T16:41:52.950Z,14.07
2023-03-06T16:44:21.406Z,13.68
2023-03-06T16:46:50.263Z,13.00
2023-03-06T16:49:23.389Z,17.60
2023-03-06T16:51:51.531Z,15.15
2023-03-06T16:54:19.355Z,13.90
2023-03-06T16:56:46.328Z,14.30
2023-03-06T16:59:13.849Z,13.15
2023-03-06T17:01:45.327Z,13.30
2023-03-06T17:04:12.643Z,14.48
2023-03-06T17:06:41.752Z,12.90
2023-03-06T17:09:10.881Z,13.40
2023-03-06T17:11:43.665Z,13.95
2023-03-06T17:14:11.197Z,14.73
2023-03-06T17:16:40.399Z,16.20
2023-03-06T17:19:08.755Z,16.48
2023-03-06T17:21:38.350Z,15.85
2023-03-06T17:24:06.811Z,14.90
2023-03-06T17:26:33.983Z,15.88
2023-03-06T17:29:01.500Z,14.88
2023-03-06T17:31:29.146Z,16.42
2023-03-06T17:34:00.539Z,17.77
2023-03-06T17:36:29.420Z,16.98
2023-03-06T17:39:02.092Z,17.75
2023-03-06T17:41:30.011Z,22.25
2023-03-06T17:43:58.446Z,29.08
2023-03-06T17:46:26.192Z,35.85
2023-03-06T17:48:54.385Z,29.40
2023-03-06T17:51:21.416Z,26.10
2023-03-06T17:53:49.375Z,24.33
2023-03-06T17:56:16.332Z,20.45
2023-03-06T17:58:43.765Z,18.80
2023-03-06T18:01:12.643Z,19.67
2023-03-06T18:03:44.277Z,19.58
2023-03-06T18:06:11.544Z,22.38
2023-03-06T18:08:39.286Z,21.67
2023-03-06T18:11:08.206Z,18.45
2023-03-06T18:13:39.366Z,16.80
2023-03-06T18:16:07.498Z,14.25
2023-03-06T18:18:35.296Z,15.73
2023-03-06T18:21:07.596Z,15.90
2023-03-06T18:23:36.140Z,19.77
2023-03-06T18:26:42.187Z,18.02
2023-03-06T18:29:09.938Z,17.67
2023-03-06T18:31:39.260Z,14.82
2023-03-06T18:34:09.887Z,14.60
2023-03-06T18:36:37.743Z,15.07
2023-03-06T18:39:10.196Z,15.10
2023-03-06T18:41:37.780Z,14.65
2023-03-06T18:44:06.208Z,15.20
2023-03-06T18:46:35.935Z,14.43
2023-03-06T18:49:04.052Z,14.20
2023-03-06T18:51:31.742Z,14.88
2023-03-06T18:54:00.969Z,15.82
2023-03-06T18:56:28.693Z,14.70
2023-03-06T18:58:56.419Z,14.15
2023-03-06T19:01:23.899Z,14.82
2023-03-06T19:03:51.624Z,12.82
2023-03-06T19:06:18.827Z,14.23
2023-03-06T19:08:46.444Z,13.18
2023-03-06T19:11:15.779Z,14.35
2023-03-06T19:13:43.958Z,13.70
2023-03-06T19:16:18.473Z,14.02
2023-03-06T19:18:45.903Z,15.50
2023-03-06T19:21:19.053Z,13.60
2023-03-06T19:23:46.835Z,14.02
2023-03-06T19:26:14.438Z,15.40
2023-03-06T19:28:43.148Z,14.02
2023-03-06T19:31:16.151Z,13.57
2023-03-06T19:33:44.136Z,15.95
2023-03-06T19:36:13.066Z,14.23
2023-03-06T19:38:40.811Z,14.75
2023-03-06T19:41:13.521Z,13.52
2023-03-06T19:43:42.328Z,15.63
2023-03-06T19:46:14.049Z,14.10
2023-03-06T19:48:42.586Z,15.60
2023-03-06T19:51:10.941Z,14.57
2023-03-06T19:53:41.480Z,14.88
2023-03-06T19:56:10.097Z,16.05
2023-03-06T19:58:37.627Z,14.07
2023-03-06T20:01:10.317Z,14.70
2023-03-06T20:03:37.768Z,13.27
2023-03-06T20:06:09.185Z,14.57
2023-03-06T20:08:36.747Z,17.10
2023-03-06T20:11:04.608Z,17.65
2023-03-06T20:13:32.089Z,16.95
2023-03-06T20:16:03.161Z,16.10
2023-03-06T20:18:30.276Z,16.50
2023-03-06T20:21:01.906Z,17.13
2023-03-06T20:23:29.623Z,17.27
2023-03-06T20:25:56.953Z,16.90
2023-03-06T20:28:23.921Z,15.95
2023-03-06T20:30:51.246Z,19.17
2023-03-06T20:33:19.700Z,18.85
2023-03-06T20:35:47.097Z,16.10
2023-03-06T20:38:14.764Z,16.20
2023-03-06T20:40:43.974Z,15.82
2023-03-06T20:43:11.082Z,19.10
2023-03-06T20:45:38.348Z,18.63
2023-03-06T20:48:05.628Z,21.48
2023-03-06T20:50:32.985Z,23.70
2023-03-06T20:53:00.130Z,21.73
2023-03-06T20:55:27.384Z,19.63
2023-03-06T20:57:54.340Z,17.60
2023-03-06T21:00:21.900Z,17.70
2023-03-06T21:02:48.971Z,18.67
2023-03-06T21:05:16.294Z,21.00
2023-03-06T21:07:43.345Z,21.17
2023-03-06T21:10:11.030Z,19.60
2023-03-06T21:12:38.019Z,17.60
2023-03-06T21:15:05.852Z,19.35
2023-03-06T21:17:33.093Z,19.52
2023-03-06T21:20:00.474Z,20.95
2023-03-06T21:22:29.739Z,20.08
2023-03-06T21:24:56.976Z,21.42
2023-03-06T21:27:23.931Z,21.65
2023-03-06T21:29:51.156Z,20.77
2023-03-06T21:32:18.225Z,19.48
2023-03-06T21:34:45.532Z,20.17
2023-03-06T21:37:12.581Z,22.25
2023-03-06T21:39:39.983Z,22.95
2023-03-06T21:42:07.144Z,22.73
2023-03-06T21:44:34.468Z,22.58
2023-03-06T21:47:01.500Z,22.02
2023-03-06T21:49:29.497Z,22.75
2023-03-06T21:51:56.946Z,20.55
2023-03-06T21:54:24.587Z,18.20
2023-03-06T21:56:51.623Z,19.38
2023-03-06T21:59:18.980Z,20.90
2023-03-06T22:01:47.510Z,19.65
2023-03-06T22:04:15.933Z,18.95
2023-03-06T22:06:45.982Z,20.45
2023-03-06T22:09:16.157Z,20.85
2023-03-06T22:11:43.312Z,20.45
2023-03-06T22:14:10.748Z,21.95
2023-03-06T22:16:37.830Z,21.35
2023-03-06T22:19:05.301Z,19.73
2023-03-06T22:21:32.354Z,19.67
2023-03-06T22:23:59.901Z,18.67
2023-03-06T22:26:28.950Z,17.40
2023-03-06T22:28:56.690Z,20.73
2023-03-06T22:31:26.173Z,21.60
2023-03-06T22:33:54.663Z,24.33
2023-03-06T22:36:22.789Z,20.90
2023-03-06T22:38:54.536Z,16.77
2023-03-06T22:41:21.779Z,16.27
2023-03-06T22:46:46.736Z,20.08
2023-03-06T22:49:15.843Z,23.73
2023-03-06T22:51:43.655Z,24.88
2023-03-06T22:56:59.752Z,21.52
2023-03-06T22:59:27.259Z,18.98
2023-03-06T23:01:54.226Z,18.52
2023-03-06T23:04:21.657Z,25.67
2023-03-06T23:06:48.647Z,24.90
2023-03-06T23:09:22.405Z,20.52
2023-03-06T23:11:50.153Z,17.30
2023-03-06T23:14:19.099Z,19.10
2023-03-06T23:16:46.432Z,17.33
2023-03-06T23:19:13.946Z,16.67
2023-03-06T23:21:40.997Z,16.98
2023-03-06T23:24:08.708Z,20.55
2023-03-06T23:26:35.899Z,19.13
2023-03-06T23:29:04.353Z,20.63
2023-03-06T23:31:32.361Z,21.73
2023-03-06T23:34:01.633Z,19.13
2023-03-06T23:36:30.441Z,17.27
2023-03-06T23:38:58.240Z,15.98
2023-03-06T23:41:25.415Z,17.20
2023-03-06T23:43:55.061Z,15.05
2023-03-06T23:46:22.811Z,18.98
2023-03-06T23:48:50.133Z,18.60
2023-03-06T23:51:19.162Z,16.65
2023-03-06T23:53:47.684Z,16.17
2023-03-06T23:56:15.377Z,14.68
2023-03-06T23:58:42.863Z,15.60
